Time;durP1;ratioP1;P1;durP2;ratioP2;P2;SDS_P1;SDS_P2;PMS_P1;PMS_P2;Temp;Humidity;BMP_temperature;BMP_pressure;BME280_temperature;BME280_humidity;BME280_pressure;Samples;Min_cycle;Max_cycle;Signal;HPM_P1;HPM_P2
2022/10/07 00:01:39;;;;;;;10.48;3.20;;;9.70;99.90;;;;;;5054564;28;20041;-61
2022/10/07 00:04:05;;;;;;;9.57;3.17;;;9.70;99.90;;;;;;5053095;28;20072;-61
2022/10/07 00:06:30;;;;;;;8.98;3.42;;;9.70;99.90;;;;;;5054035;28;20051;-60
2022/10/07 00:08:58;;;;;;;8.85;4.00;;;9.70;99.90;;;;;;5052841;28;20044;-61
2022/10/07 00:11:26;;;;;;;10.93;3.83;;;9.70;99.90;;;;;;5052822;28;20485;-60
2022/10/07 00:14:00;;;;;;;10.25;3.70;;;9.60;99.90;;;;;;5054211;28;20067;-60
2022/10/07 00:16:28;;;;;;;12.35;3.65;;;9.70;99.90;;;;;;5054271;28;20045;-60
2022/10/07 00:18:56;;;;;;;8.75;3.67;;;9.60;99.90;;;;;;5052689;28;20037;-60
2022/10/07 00:21:23;;;;;;;8.77;3.50;;;9.60;99.90;;;;;;5053548;28;20072;-60
2022/10/07 00:23:49;;;;;;;11.43;3.50;;;9.60;99.90;;;;;;5053936;28;20053;-61
2022/10/07 00:26:21;;;;;;;10.38;3.38;;;9.60;99.90;;;;;;5053732;28;20051;-60
2022/10/07 00:28:47;;;;;;;11.90;3.40;;;9.60;99.90;;;;;;5053545;28;20422;-60
2022/10/07 00:31:14;;;;;;;12.10;3.50;;;9.50;99.90;;;;;;5052609;28;20116;-60
2022/10/07 00:33:40;;;;;;;10.63;3.42;;;9.60;99.90;;;;;;5052126;28;20037;-60
2022/10/07 00:36:16;;;;;;;11.20;3.58;;;9.60;99.90;;;;;;5035590;28;20037;-60
2022/10/07 00:38:42;;;;;;;8.50;3.30;;;9.60;99.90;;;;;;5053219;28;20149;-61
2022/10/07 00:41:18;;;;;;;10.85;3.50;;;9.50;99.90;;;;;;5052635;28;20312;-61
2022/10/07 00:43:44;;;;;;;10.93;3.67;;;9.50;99.90;;;;;;5053122;28;20401;-60
2022/10/07 00:46:31;;;;;;;12.00;4.00;;;9.50;99.90;;;;;;5053145;28;20120;-60
2022/10/07 00:49:05;;;;;;;9.80;3.40;;;9.50;99.90;;;;;;5042181;28;20041;-60
2022/10/07 00:51:33;;;;;;;8.57;3.17;;;9.50;99.90;;;;;;5050459;28;20462;-60
2022/10/07 00:54:02;;;;;;;11.95;3.70;;;9.50;99.90;;;;;;5040218;28;20048;-61
2022/10/07 00:56:28;;;;;;;10.82;3.47;;;9.50;99.90;;;;;;5052480;28;20425;-61
2022/10/07 00:58:55;;;;;;;12.60;3.65;;;9.60;99.90;;;;;;5052844;28;20102;-60
2022/10/07 01:01:21;;;;;;;11.45;3.83;;;9.50;99.90;;;;;;5052192;28;20552;-60
2022/10/07 01:03:47;;;;;;;10.63;3.28;;;9.50;99.90;;;;;;5052566;28;20132;-61
2022/10/07 01:06:13;;;;;;;10.85;3.72;;;9.50;99.90;;;;;;5053090;28;20358;-60
2022/10/07 01:08:39;;;;;;;11.27;3.25;;;9.50;99.90;;;;;;5052846;28;20033;-61
2022/10/07 01:11:16;;;;;;;10.38;3.78;;;9.50;99.90;;;;;;5052470;28;20470;-60
2022/10/07 01:14:15;;;;;;;9.85;3.35;;;9.50;99.90;;;;;;5052777;28;20063;-60
2022/10/07 01:17:01;;;;;;;12.98;3.97;;;9.40;99.90;;;;;;5051730;28;20048;-60
2022/10/07 01:19:43;;;;;;;10.07;3.10;;;9.40;99.90;;;;;;5040831;28;20478;-60
2022/10/07 01:22:20;;;;;;;10.32;3.83;;;9.40;99.90;;;;;;5052694;28;20051;-60
2022/10/07 01:25:31;;;;;;;15.27;3.40;;;9.40;99.90;;;;;;5051930;28;20048;-61
2022/10/07 01:28:07;;;;;;;10.13;3.40;;;9.40;99.90;;;;;;5052786;28;20044;-61
2022/10/07 01:30:39;;;;;;;9.63;3.72;;;9.40;99.90;;;;;;5052496;28;20419;-61
2022/10/07 01:33:11;;;;;;;9.25;3.22;;;9.40;99.90;;;;;;5052812;28;20095;-61
2022/10/07 01:35:41;;;;;;;8.63;3.65;;;9.50;99.90;;;;;;5051966;28;20116;-61
2022/10/07 01:38:09;;;;;;;8.75;3.35;;;9.40;99.90;;;;;;5051339;28;20086;-61
2022/10/07 01:40:50;;;;;;;7.72;3.33;;;9.40;99.90;;;;;;5052136;28;20072;-61
2022/10/07 01:43:19;;;;;;;12.05;3.53;;;9.40;99.90;;;;;;5053954;28;20470;-61
2022/10/07 01:45:46;;;;;;;10.90;3.40;;;9.40;99.90;;;;;;5056889;28;20090;-61
2022/10/07 01:48:12;;;;;;;12.60;3.95;;;9.40;99.90;;;;;;5055777;28;20055;-61
2022/10/07 01:50:38;;;;;;;11.60;3.35;;;9.40;99.90;;;;;;5056432;28;20025;-61
2022/10/07 01:53:11;;;;;;;10.68;3.13;;;9.40;99.90;;;;;;5056948;28;20033;-60
2022/10/07 01:55:53;;;;;;;12.48;3.88;;;9.30;99.90;;;;;;5056553;28;20454;-61
2022/10/07 01:58:46;;;;;;;8.95;3.60;;;9.30;99.90;;;;;;5056684;28;20048;-61
2022/10/07 02:01:49;;;;;;;12.32;3.80;;;9.30;99.90;;;;;;5055073;28;20047;-61
2022/10/07 02:04:30;;;;;;;10.73;3.80;;;9.20;99.90;;;;;;5056194;28;20076;-61
2022/10/07 02:07:07;;;;;;;12.77;3.95;;;9.20;99.90;;;;;;5056732;28;20110;-61
2022/10/07 02:09:39;;;;;;;13.30;3.65;;;9.20;99.90;;;;;;5054799;28;20037;-61
2022/10/07 02:12:23;;;;;;;10.50;4.10;;;9.20;99.90;;;;;;5056328;28;20112;-61
2022/10/07 02:15:02;;;;;;;10.07;3.42;;;9.20;99.90;;;;;;5056276;28;20366;-60
2022/10/07 02:17:32;;;;;;;11.65;3.95;;;9.20;99.90;;;;;;5055971;28;20445;-60
2022/10/07 02:20:00;;;;;;;10.68;3.88;;;9.10;99.90;;;;;;5056293;28;20353;-61
2022/10/07 02:22:27;;;;;;;10.65;3.80;;;9.10;99.90;;;;;;5051534;28;20497;-61
2022/10/07 02:24:54;;;;;;;10.65;3.92;;;9.10;99.90;;;;;;5046981;28;20033;-61
2022/10/07 02:27:29;;;;;;;11.93;4.18;;;9.00;99.90;;;;;;5052802;28;20532;-60
2022/10/07 02:29:58;;;;;;;12.55;4.20;;;9.00;99.90;;;;;;5040785;28;20041;-61
2022/10/07 02:32:26;;;;;;;11.80;4.45;;;9.00;99.90;;;;;;5056267;28;20432;-61
2022/10/07 02:34:57;;;;;;;14.20;4.18;;;8.90;99.90;;;;;;5055771;28;20116;-61
2022/10/07 02:37:27;;;;;;;13.77;4.03;;;8.90;99.90;;;;;;5055948;28;20048;-61
2022/10/07 02:39:55;;;;;;;12.70;4.78;;;8.90;99.90;;;;;;5055232;28;20140;-61
2022/10/07 02:42:30;;;;;;;13.60;3.90;;;8.90;99.90;;;;;;5055768;28;20044;-61
2022/10/07 02:45:12;;;;;;;15.07;4.32;;;8.80;99.90;;;;;;5055793;28;20049;-61
2022/10/07 02:47:41;;;;;;;10.77;4.00;;;8.80;99.90;;;;;;5043394;28;20048;-61
2022/10/07 02:50:10;;;;;;;12.38;4.32;;;8.80;99.90;;;;;;5041626;28;20044;-61
2022/10/07 02:52:37;;;;;;;10.43;4.20;;;8.80;99.90;;;;;;5044333;28;20092;-61
2022/10/07 02:55:13;;;;;;;12.75;3.92;;;8.80;99.90;;;;;;5051427;28;20029;-61
2022/10/07 02:57:44;;;;;;;11.30;4.00;;;8.80;99.90;;;;;;5054461;28;20052;-61
2022/10/07 03:00:11;;;;;;;13.77;4.40;;;8.80;99.90;;;;;;5054475;28;20041;-61
2022/10/07 03:03:03;;;;;;;13.02;4.40;;;8.70;99.90;;;;;;5055315;28;20048;-61
2022/10/07 03:05:31;;;;;;;12.30;3.90;;;8.80;99.90;;;;;;5054104;28;20101;-64
2022/10/07 03:08:01;;;;;;;11.02;4.30;;;8.70;99.90;;;;;;5055011;28;20056;-61
2022/10/07 03:10:27;;;;;;;17.10;4.43;;;8.70;99.90;;;;;;5054801;28;20045;-61
2022/10/07 03:12:54;;;;;;;19.40;4.63;;;8.70;99.90;;;;;;5054192;28;20461;-61
2022/10/07 03:15:23;;;;;;;13.43;4.10;;;8.70;99.90;;;;;;5054846;28;20048;-61
2022/10/07 03:17:48;;;;;;;12.50;3.72;;;8.70;99.90;;;;;;5054637;28;20088;-61
2022/10/07 03:20:14;;;;;;;13.63;4.40;;;8.70;99.90;;;;;;5054653;28;20076;-61
2022/10/07 03:22:43;;;;;;;10.98;3.83;;;8.70;99.90;;;;;;5054453;28;20040;-61
2022/10/07 03:25:13;;;;;;;12.50;4.38;;;8.70;99.90;;;;;;5054685;28;20032;-61
2022/10/07 03:27:39;;;;;;;12.68;4.13;;;8.70;99.90;;;;;;5054195;28;20514;-60
2022/10/07 03:30:05;;;;;;;14.43;4.22;;;8.70;99.90;;;;;;5054367;28;20089;-61
2022/10/07 03:32:31;;;;;;;12.77;4.40;;;8.70;99.90;;;;;;5054467;28;20072;-60
2022/10/07 03:34:57;;;;;;;13.32;4.75;;;8.70;99.90;;;;;;5053399;28;20363;-61
2022/10/07 03:37:23;;;;;;;13.05;4.40;;;8.70;99.90;;;;;;5054563;28;20171;-61
2022/10/07 03:39:49;;;;;;;11.57;4.10;;;8.70;99.90;;;;;;5052866;28;20497;-61
2022/10/07 03:42:15;;;;;;;13.65;4.18;;;8.70;99.90;;;;;;5054124;28;20415;-61
2022/10/07 03:44:41;;;;;;;17.13;4.80;;;8.70;99.90;;;;;;5034856;28;20466;-61
2022/10/07 03:47:10;;;;;;;13.68;4.25;;;8.70;99.90;;;;;;5053281;28;20040;-62
2022/10/07 03:49:35;;;;;;;15.10;4.80;;;8.60;99.90;;;;;;5053903;28;20202;-61
2022/10/07 03:52:02;;;;;;;12.23;3.95;;;8.70;99.90;;;;;;5048207;28;20120;-61
2022/10/07 03:54:28;;;;;;;11.32;4.43;;;8.60;99.90;;;;;;5046332;28;20171;-61
2022/10/07 03:56:53;;;;;;;15.82;4.72;;;8.60;99.90;;;;;;5054243;28;20037;-66
2022/10/07 03:59:19;;;;;;;17.50;4.28;;;8.60;99.90;;;;;;5054007;28;20051;-61
2022/10/07 04:01:44;;;;;;;14.15;4.68;;;8.60;99.90;;;;;;5053663;28;20071;-61
2022/10/07 04:04:10;;;;;;;15.30;5.10;;;8.60;99.90;;;;;;5053841;28;20350;-61
2022/10/07 04:06:42;;;;;;;18.10;5.13;;;8.70;99.90;;;;;;5053496;28;20102;-61
2022/10/07 04:09:08;;;;;;;13.10;4.75;;;8.70;99.90;;;;;;5052704;28;20051;-61
2022/10/07 04:11:34;;;;;;;15.98;4.55;;;8.70;99.90;;;;;;5052811;28;20037;-61
2022/10/07 04:14:00;;;;;;;15.48;5.35;;;8.70;99.90;;;;;;5053079;28;20098;-61
2022/10/07 04:16:27;;;;;;;15.90;5.38;;;8.70;99.90;;;;;;5052810;28;20055;-61
2022/10/07 04:18:56;;;;;;;15.48;5.07;;;8.70;99.90;;;;;;5052256;28;20037;-61
2022/10/07 04:21:22;;;;;;;15.40;4.75;;;8.80;99.90;;;;;;5052021;28;20136;-60
2022/10/07 04:23:48;;;;;;;15.80;5.00;;;8.80;99.90;;;;;;5052940;28;20371;-60
2022/10/07 04:26:14;;;;;;;19.02;5.72;;;8.80;99.90;;;;;;5052383;28;20506;-61
2022/10/07 04:28:40;;;;;;;16.60;4.75;;;8.80;99.90;;;;;;5053478;28;20033;-60
2022/10/07 04:31:07;;;;;;;16.23;5.00;;;8.80;99.90;;;;;;5052175;28;20366;-61
2022/10/07 04:33:36;;;;;;;16.33;5.30;;;8.80;99.90;;;;;;5052698;28;20048;-61
2022/10/07 04:36:08;;;;;;;15.65;4.72;;;8.80;99.90;;;;;;5053666;28;20041;-61
2022/10/07 04:38:33;;;;;;;14.48;4.80;;;8.80;99.90;;;;;;5052427;28;20101;-62
2022/10/07 04:41:04;;;;;;;18.20;5.28;;;8.90;99.90;;;;;;5053486;28;20123;-61
2022/10/07 04:43:32;;;;;;;14.63;4.57;;;8.90;99.90;;;;;;5051984;28;20145;-61
2022/10/07 04:46:07;;;;;;;18.27;5.55;;;8.90;99.90;;;;;;5052913;28;20037;-61
2022/10/07 04:48:33;;;;;;;21.30;5.57;;;8.90;99.90;;;;;;5052984;28;20044;-61
2022/10/07 04:51:01;;;;;;;20.98;5.95;;;8.90;99.90;;;;;;5052877;28;20150;-61
2022/10/07 04:53:27;;;;;;;14.95;4.80;;;8.90;99.90;;;;;;5052695;28;20441;-61
2022/10/07 04:55:53;;;;;;;15.57;5.00;;;8.90;99.90;;;;;;5053258;28;20075;-61
2022/10/07 04:58:19;;;;;;;17.92;5.15;;;9.00;99.90;;;;;;5051663;28;20118;-61
2022/10/07 05:00:50;;;;;;;16.40;4.85;;;8.90;99.90;;;;;;5052581;28;20029;-61
2022/10/07 05:03:17;;;;;;;15.38;5.47;;;9.00;99.90;;;;;;5050504;28;20049;-61
2022/10/07 05:05:45;;;;;;;20.13;5.43;;;9.00;99.90;;;;;;5051507;28;20202;-61
2022/10/07 05:08:15;;;;;;;16.23;5.78;;;9.00;99.90;;;;;;5052382;28;20429;-61
2022/10/07 05:10:41;;;;;;;15.88;4.80;;;9.00;99.90;;;;;;5052252;28;20032;-61
2022/10/07 05:13:11;;;;;;;16.83;5.43;;;9.00;99.90;;;;;;5052707;28;20102;-62
2022/10/07 05:15:46;;;;;;;19.33;5.25;;;9.00;99.90;;;;;;5052335;28;20037;-61
2022/10/07 05:18:11;;;;;;;13.73;5.07;;;9.00;99.90;;;;;;5050166;28;20637;-62
2022/10/07 05:20:39;;;;;;;17.42;5.93;;;9.00;99.90;;;;;;5051835;28;20043;-61
2022/10/07 05:23:05;;;;;;;15.93;5.47;;;9.00;99.90;;;;;;5051582;28;20493;-61
2022/10/07 05:25:30;;;;;;;16.20;6.50;;;9.00;99.90;;;;;;5052495;28;20033;-61
2022/10/07 05:27:56;;;;;;;19.83;5.78;;;8.90;99.90;;;;;;5052599;28;20036;-61
2022/10/07 05:30:21;;;;;;;18.50;5.93;;;8.90;99.90;;;;;;5052235;28;20129;-60
2022/10/07 05:32:47;;;;;;;21.05;5.82;;;8.90;99.90;;;;;;5052264;28;20037;-60
2022/10/07 05:35:13;;;;;;;16.92;5.38;;;8.90;99.90;;;;;;5051813;28;20037;-60
2022/10/07 05:37:38;;;;;;;18.42;5.53;;;8.90;99.90;;;;;;5037342;28;20045;-60
2022/10/07 05:40:04;;;;;;;12.35;4.97;;;8.90;99.90;;;;;;5051353;28;20127;-60
2022/10/07 05:42:30;;;;;;;16.77;6.30;;;8.90;99.90;;;;;;5051564;28;20427;-60
2022/10/07 05:44:56;;;;;;;17.77;5.85;;;8.90;99.90;;;;;;5051559;28;20091;-60
2022/10/07 05:47:21;;;;;;;18.42;5.50;;;8.90;99.90;;;;;;5050476;28;20037;-61
2022/10/07 05:49:47;;;;;;;22.00;6.35;;;8.90;99.90;;;;;;5050326;28;20089;-60
2022/10/07 05:52:12;;;;;;;17.95;5.93;;;8.90;99.90;;;;;;5044227;28;20073;-61
2022/10/07 05:54:38;;;;;;;15.23;5.28;;;8.90;99.90;;;;;;5046097;28;20056;-61
2022/10/07 05:57:04;;;;;;;19.00;6.00;;;9.00;99.90;;;;;;5050645;28;20041;-61
2022/10/07 05:59:30;;;;;;;17.77;5.70;;;9.00;99.90;;;;;;5051018;28;20517;-61
2022/10/07 06:01:56;;;;;;;18.70;6.10;;;9.00;99.90;;;;;;5048150;28;20041;-61
2022/10/07 06:04:22;;;;;;;20.38;5.35;;;9.00;99.90;;;;;;5051799;28;20033;-61
2022/10/07 06:06:47;;;;;;;17.45;5.68;;;9.00;99.90;;;;;;5049795;28;20094;-62
2022/10/07 06:14:41;;;;;;;13.98;5.40;;;9.10;99.90;;;;;;5049692;28;20106;-62
2022/10/07 06:17:07;;;;;;;16.50;5.97;;;9.10;99.90;;;;;;5048608;28;20045;-62
2022/10/07 06:19:32;;;;;;;19.15;5.90;;;9.10;99.90;;;;;;5048950;28;20067;-62
2022/10/07 06:21:58;;;;;;;16.63;6.15;;;9.10;99.90;;;;;;5049790;28;20105;-62
2022/10/07 06:24:24;;;;;;;18.90;5.45;;;9.10;99.90;;;;;;5049710;28;20048;-61
2022/10/07 06:26:50;;;;;;;14.23;5.07;;;9.10;99.90;;;;;;5048493;28;20474;-62
2022/10/07 06:29:15;;;;;;;17.85;5.45;;;9.20;99.90;;;;;;5050755;28;20072;-64
2022/10/07 06:31:41;;;;;;;23.20;5.75;;;9.20;99.90;;;;;;5053897;28;20047;-63
2022/10/07 06:34:06;;;;;;;17.50;5.60;;;9.30;99.90;;;;;;5053010;28;20079;-60
2022/10/07 06:36:32;;;;;;;15.10;5.22;;;9.30;99.90;;;;;;5053537;28;20045;-62
2022/10/07 06:38:57;;;;;;;18.73;5.30;;;9.40;99.90;;;;;;5053668;28;20041;-61
2022/10/07 06:41:23;;;;;;;17.50;5.47;;;9.50;99.90;;;;;;5053566;28;20037;-61
2022/10/07 06:43:54;;;;;;;17.77;5.55;;;9.60;99.90;;;;;;5053891;28;20076;-61
2022/10/07 06:46:19;;;;;;;14.30;4.80;;;9.70;99.90;;;;;;5053161;28;20067;-62
2022/10/07 06:48:45;;;;;;;15.60;5.07;;;9.80;99.90;;;;;;5054064;28;20598;-61
2022/10/07 06:51:15;;;;;;;15.85;5.10;;;9.80;99.90;;;;;;5054250;28;20106;-61
2022/10/07 06:53:41;;;;;;;14.38;4.90;;;9.90;99.90;;;;;;5054416;28;20056;-61
2022/10/07 06:56:07;;;;;;;16.88;4.80;;;9.90;99.90;;;;;;5054493;28;20032;-61
2022/10/07 06:58:34;;;;;;;17.77;4.80;;;10.00;99.90;;;;;;5054702;28;20342;-61
2022/10/07 07:00:59;;;;;;;17.30;5.07;;;10.10;99.90;;;;;;5053872;28;20044;-61
2022/10/07 07:03:26;;;;;;;16.58;4.90;;;10.20;99.90;;;;;;5054751;28;20044;-61
2022/10/07 07:05:53;;;;;;;13.57;4.68;;;10.40;99.90;;;;;;5053499;28;20041;-61
2022/10/07 07:08:19;;;;;;;15.02;4.47;;;10.50;99.90;;;;;;5054740;28;20040;-60
2022/10/07 07:10:45;;;;;;;15.15;4.60;;;10.50;99.90;;;;;;5054652;28;20028;-61
2022/10/07 07:13:11;;;;;;;11.55;4.50;;;10.50;99.90;;;;;;5053200;28;20044;-61
2022/10/07 07:15:39;;;;;;;23.02;4.88;;;10.60;99.90;;;;;;5053660;28;20072;-60
2022/10/07 07:18:07;;;;;;;13.95;4.53;;;10.70;99.90;;;;;;5054985;28;20091;-61
2022/10/07 07:20:34;;;;;;;14.45;4.60;;;10.80;99.90;;;;;;5053907;28;20056;-62
2022/10/07 07:23:00;;;;;;;15.90;4.45;;;10.90;99.90;;;;;;5054002;28;20080;-62
2022/10/07 07:25:27;;;;;;;12.63;4.22;;;11.00;99.90;;;;;;5053884;28;20029;-61
2022/10/07 07:27:54;;;;;;;14.48;4.53;;;11.10;99.90;;;;;;5054686;28;20044;-60
2022/10/07 07:30:22;;;;;;;14.13;4.43;;;11.20;99.90;;;;;;5054360;28;20119;-61
2022/10/07 07:32:48;;;;;;;14.00;4.90;;;11.30;99.90;;;;;;5054918;28;20059;-60
2022/10/07 07:35:14;;;;;;;15.43;4.40;;;11.40;99.90;;;;;;5054671;28;20040;-61
2022/10/07 07:37:40;;;;;;;16.17;4.10;;;11.40;99.90;;;;;;5054780;28;20047;-61
2022/10/07 07:40:06;;;;;;;13.70;4.35;;;11.60;99.90;;;;;;5054113;28;20041;-62
2022/10/07 07:42:33;;;;;;;15.55;4.35;;;11.60;99.90;;;;;;5054135;28;20366;-61
2022/10/07 07:44:59;;;;;;;13.02;3.75;;;11.70;99.90;;;;;;5053281;28;20052;-61
2022/10/07 07:47:26;;;;;;;13.88;4.40;;;11.80;99.90;;;;;;5054509;28;20029;-61
2022/10/07 07:49:52;;;;;;;14.60;4.20;;;11.90;99.90;;;;;;5054586;28;20033;-60
2022/10/07 07:52:18;;;;;;;14.30;4.70;;;12.00;99.90;;;;;;5054358;28;20280;-60
2022/10/07 07:54:43;;;;;;;16.45;5.22;;;12.10;99.90;;;;;;5054314;28;20033;-61
2022/10/07 07:57:09;;;;;;;14.00;4.40;;;12.20;99.90;;;;;;5054720;28;20049;-61
2022/10/07 07:59:36;;;;;;;15.52;3.85;;;12.30;99.90;;;;;;5052924;28;20047;-61
2022/10/07 08:02:03;;;;;;;14.25;3.97;;;12.40;99.90;;;;;;5054395;28;20052;-61
2022/10/07 08:04:29;;;;;;;10.15;3.63;;;12.40;99.90;;;;;;5053457;28;20398;-62
2022/10/07 08:06:55;;;;;;;16.17;4.22;;;12.50;99.90;;;;;;5051792;28;20079;-61
2022/10/07 08:09:20;;;;;;;13.57;4.40;;;12.60;99.90;;;;;;5042546;28;20076;-61
2022/10/07 08:11:46;;;;;;;13.48;4.07;;;12.70;99.90;;;;;;5053769;28;20039;-61
2022/10/07 08:14:13;;;;;;;15.57;4.25;;;12.80;99.90;;;;;;5053665;28;20037;-61
2022/10/07 08:16:39;;;;;;;13.07;3.53;;;12.80;99.90;;;;;;5053846;28;20480;-60
2022/10/07 08:19:05;;;;;;;14.75;3.63;;;12.90;99.90;;;;;;5048671;28;20037;-61
2022/10/07 08:21:34;;;;;;;12.98;4.35;;;13.00;99.90;;;;;;5052441;28;20107;-62
2022/10/07 08:24:02;;;;;;;12.45;3.90;;;13.10;99.90;;;;;;5053576;28;20077;-61
2022/10/07 08:26:32;;;;;;;11.52;3.88;;;13.20;99.90;;;;;;5054019;28;20043;-61
2022/10/07 08:28:59;;;;;;;18.08;4.13;;;13.30;99.90;;;;;;5054019;28;20037;-62
2022/10/07 08:31:28;;;;;;;14.70;4.10;;;13.50;99.90;;;;;;5054070;28;20676;-63
2022/10/07 08:33:55;;;;;;;12.07;3.83;;;13.50;99.90;;;;;;5054591;28;20037;-63
2022/10/07 08:36:23;;;;;;;13.50;3.85;;;13.60;99.90;;;;;;5054726;28;20068;-62
2022/10/07 08:38:49;;;;;;;12.02;3.40;;;13.80;99.90;;;;;;5053572;28;20394;-62
2022/10/07 08:41:33;;;;;;;14.73;4.10;;;13.90;99.90;;;;;;5054523;28;20045;-62
2022/10/07 08:44:06;;;;;;;9.67;3.57;;;14.10;99.90;;;;;;5054354;28;20044;-62
2022/10/07 08:46:35;;;;;;;15.20;3.70;;;14.20;99.90;;;;;;5054462;28;20060;-61
2022/10/07 08:49:14;;;;;;;13.43;2.97;;;14.20;99.90;;;;;;5054526;28;20032;-62
2022/10/07 08:52:05;;;;;;;13.95;4.30;;;14.40;99.90;;;;;;5053263;28;20069;-60
2022/10/07 08:54:32;;;;;;;12.40;3.10;;;14.50;99.90;;;;;;5053443;28;20370;-60
2022/10/07 08:57:13;;;;;;;16.42;3.47;;;14.60;99.90;;;;;;5054328;28;20116;-60
2022/10/07 08:59:46;;;;;;;14.25;3.83;;;14.70;99.90;;;;;;5054438;28;20048;-60
2022/10/07 09:02:21;;;;;;;14.13;3.42;;;14.80;99.90;;;;;;5054355;28;20045;-62
2022/10/07 09:05:05;;;;;;;12.50;3.13;;;14.90;99.90;;;;;;5054099;28;20079;-60
2022/10/07 09:07:46;;;;;;;12.30;3.53;;;15.00;99.90;;;;;;5053374;28;20391;-60
2022/10/07 09:10:18;;;;;;;14.98;3.75;;;15.10;99.90;;;;;;5053891;28;20446;-61
2022/10/07 09:12:49;;;;;;;11.82;3.05;;;15.10;99.90;;;;;;5054082;28;20060;-62
2022/10/07 09:15:38;;;;;;;15.57;3.55;;;15.20;99.90;;;;;;5052866;28;20068;-61
2022/10/07 09:18:21;;;;;;;13.10;2.92;;;15.10;99.90;;;;;;5052847;28;20119;-61
2022/10/07 09:20:52;;;;;;;14.80;3.38;;;15.10;99.90;;;;;;5054257;28;20037;-62
2022/10/07 09:23:24;;;;;;;19.08;4.10;;;15.10;99.90;;;;;;5052794;28;20049;-62
2022/10/07 09:25:50;;;;;;;12.95;3.30;;;15.10;99.90;;;;;;5054179;28;20045;-61
2022/10/07 09:28:18;;;;;;;12.45;3.38;;;15.10;99.90;;;;;;5053856;28;20041;-61
2022/10/07 09:30:44;;;;;;;10.35;3.55;;;15.30;99.90;;;;;;5053824;28;20036;-61
2022/10/07 09:33:19;;;;;;;12.85;3.80;;;15.50;99.90;;;;;;5054066;28;20155;-61
2022/10/07 09:35:53;;;;;;;9.95;3.42;;;15.60;99.90;;;;;;5052859;28;20332;-61
2022/10/07 09:38:31;;;;;;;10.50;3.13;;;15.70;99.90;;;;;;5035587;28;20064;-62
2022/10/07 09:41:16;;;;;;;15.57;3.60;;;15.90;99.90;;;;;;5053737;28;20040;-61
2022/10/07 09:44:01;;;;;;;11.50;3.15;;;16.00;99.90;;;;;;5054005;28;20099;-61
2022/10/07 09:46:50;;;;;;;15.90;3.50;;;16.00;99.90;;;;;;5054289;28;20037;-61
2022/10/07 09:49:28;;;;;;;15.75;3.63;;;16.10;99.90;;;;;;5052762;28;20048;-61
2022/10/07 09:52:05;;;;;;;11.20;3.05;;;16.10;99.90;;;;;;5053855;28;20099;-62
2022/10/07 09:54:35;;;;;;;12.95;3.05;;;16.10;99.90;;;;;;5053025;28;20072;-61
2022/10/07 09:57:03;;;;;;;13.80;3.33;;;16.10;99.90;;;;;;5054049;28;20059;-61
2022/10/07 09:59:34;;;;;;;13.95;3.50;;;16.20;99.90;;;;;;5053418;28;20032;-61
2022/10/07 10:02:12;;;;;;;13.40;3.67;;;16.10;99.90;;;;;;5052246;28;20044;-62
2022/10/07 10:04:47;;;;;;;17.67;3.67;;;16.20;99.90;;;;;;5053925;28;20045;-62
2022/10/07 10:07:32;;;;;;;13.20;2.80;;;16.30;99.90;;;;;;5057113;28;20044;-62
2022/10/07 10:10:11;;;;;;;15.98;3.78;;;16.40;99.90;;;;;;5057516;28;20052;-62
2022/10/07 10:12:45;;;;;;;15.15;3.13;;;16.50;99.90;;;;;;5056148;28;20334;-61
2022/10/07 10:15:39;;;;;;;11.43;2.72;;;16.60;99.90;;;;;;5056364;28;20045;-62
2022/10/07 10:18:33;;;;;;;13.23;4.15;;;16.80;99.90;;;;;;5056982;28;20037;-62
2022/10/07 10:21:29;;;;;;;13.77;2.92;;;17.00;99.90;;;;;;5039385;28;20450;-62
2022/10/07 10:24:00;;;;;;;14.00;3.08;;;17.20;99.90;;;;;;5055872;28;20478;-62
2022/10/07 10:26:43;;;;;;;10.95;2.88;;;17.40;99.90;;;;;;5056791;28;20048;-62
2022/10/07 10:29:23;;;;;;;15.02;3.42;;;17.40;99.90;;;;;;5056601;28;20037;-61
2022/10/07 10:32:01;;;;;;;16.25;3.50;;;17.50;99.90;;;;;;5056828;28;20171;-62
2022/10/07 10:34:48;;;;;;;13.68;3.72;;;17.50;99.90;;;;;;5056262;28;20681;-61
2022/10/07 10:37:20;;;;;;;15.32;3.42;;;17.60;99.90;;;;;;5054423;28;20056;-63
2022/10/07 10:40:15;;;;;;;12.85;4.05;;;17.60;99.90;;;;;;5054606;28;20060;-62
2022/10/07 10:43:11;;;;;;;14.65;3.47;;;17.60;99.90;;;;;;5033332;28;20057;-63
2022/10/07 10:45:56;;;;;;;14.02;3.17;;;17.60;99.90;;;;;;5034135;28;20315;-63
2022/10/07 10:48:42;;;;;;;12.05;2.88;;;17.70;99.90;;;;;;5033302;28;20052;-62
2022/10/07 10:51:30;;;;;;;14.20;3.55;;;17.60;99.90;;;;;;5044501;28;20045;-62
2022/10/07 10:54:18;;;;;;;12.15;3.28;;;17.50;99.90;;;;;;5052802;28;20434;-63
2022/10/07 10:56:52;;;;;;;16.33;3.40;;;17.40;99.90;;;;;;5053695;28;20110;-62
2022/10/07 10:59:32;;;;;;;14.20;3.25;;;17.30;99.90;;;;;;5053022;28;20037;-63
2022/10/07 11:02:25;;;;;;;13.23;3.88;;;17.20;99.90;;;;;;5053768;28;20044;-63
2022/10/07 11:04:56;;;;;;;13.15;3.60;;;17.30;99.90;;;;;;5053473;28;20041;-64
2022/10/07 11:07:28;;;;;;;14.43;3.83;;;17.20;99.90;;;;;;5052337;28;20052;-63
2022/10/07 11:09:59;;;;;;;15.20;3.53;;;17.20;99.90;;;;;;5053234;28;20486;-62
2022/10/07 11:12:29;;;;;;;12.77;3.40;;;17.10;99.90;;;;;;5053007;28;20033;-62
2022/10/07 11:15:00;;;;;;;11.02;3.35;;;17.20;99.90;;;;;;5053036;28;20335;-62
2022/10/07 11:17:32;;;;;;;14.98;3.70;;;17.20;99.90;;;;;;5053057;28;20045;-63
2022/10/07 11:20:15;;;;;;;16.95;3.83;;;17.20;99.90;;;;;;5052765;28;20040;-62
2022/10/07 11:22:49;;;;;;;14.25;4.03;;;17.50;99.90;;;;;;5052429;28;20037;-62
2022/10/07 11:25:45;;;;;;;10.52;3.40;;;17.50;99.90;;;;;;5052976;28;20079;-63
2022/10/07 11:28:22;;;;;;;10.63;3.40;;;17.50;99.90;;;;;;5051815;28;20048;-62
2022/10/07 11:31:00;;;;;;;10.80;3.03;;;17.50;99.90;;;;;;5052927;28;20661;-63
2022/10/07 11:33:36;;;;;;;9.48;3.20;;;17.60;99.90;;;;;;5052606;28;20052;-62
2022/10/07 11:36:11;;;;;;;10.98;2.85;;;17.70;99.90;;;;;;5052916;28;20033;-63
2022/10/07 11:38:38;;;;;;;11.88;3.13;;;17.90;99.90;;;;;;5052792;28;20045;-63
2022/10/07 11:41:27;;;;;;;11.52;3.13;;;17.80;99.90;;;;;;5050418;28;20040;-63
2022/10/07 11:43:55;;;;;;;10.95;3.33;;;17.90;99.90;;;;;;5050504;28;20047;-63
2022/10/07 11:46:40;;;;;;;16.30;3.42;;;18.00;99.90;;;;;;5052626;28;20405;-62
2022/10/07 11:49:11;;;;;;;;;;;17.70;99.90;;;;;;5052645;28;20462;-63
2022/10/07 11:51:49;;;;;;;10.25;2.88;;;17.70;99.90;;;;;;5052208;28;19916;-63
2022/10/07 11:54:18;;;;;;;9.40;2.17;;;17.60;99.90;;;;;;5051843;28;20041;-63
2022/10/07 11:56:47;;;;;;;9.15;2.80;;;17.60;99.90;;;;;;5052374;28;20107;-63
2022/10/07 11:59:42;;;;;;;10.88;2.40;;;17.60;99.90;;;;;;5052192;28;20528;-63
2022/10/07 12:02:26;;;;;;;9.43;2.47;;;17.70;99.90;;;;;;5043932;28;20199;-62
2022/10/07 12:04:52;;;;;;;9.52;2.47;;;17.70;99.90;;;;;;5051876;28;20037;-63
2022/10/07 12:07:39;;;;;;;8.82;2.47;;;17.70;99.90;;;;;;5052137;28;20041;-62
2022/10/07 12:10:22;;;;;;;10.98;2.60;;;17.70;99.90;;;;;;5051744;28;20036;-62
2022/10/07 12:12:56;;;;;;;13.93;3.00;;;17.80;99.90;;;;;;5051740;28;20106;-65
2022/10/07 12:15:32;;;;;;;13.43;3.15;;;17.70;99.90;;;;;;5052089;28;20033;-63
2022/10/07 12:18:03;;;;;;;11.48;2.67;;;17.70;99.90;;;;;;5051420;28;20037;-63
2022/10/07 12:20:32;;;;;;;10.15;2.63;;;17.60;99.90;;;;;;5034137;28;20496;-63
2022/10/07 12:23:20;;;;;;;14.48;2.88;;;17.60;99.90;;;;;;5052002;28;20032;-63
2022/10/07 12:25:49;;;;;;;11.63;3.17;;;17.60;99.90;;;;;;5052005;28;20049;-63
2022/10/07 12:28:40;;;;;;;13.18;2.75;;;17.60;99.90;;;;;;5050838;28;20439;-64
2022/10/07 12:31:15;;;;;;;10.48;3.08;;;17.70;99.90;;;;;;5048631;28;20047;-63
2022/10/07 12:33:46;;;;;;;9.13;2.60;;;17.60;99.90;;;;;;5051857;28;20044;-63
2022/10/07 12:36:20;;;;;;;10.77;2.78;;;17.60;99.90;;;;;;5051197;28;20053;-63
2022/10/07 12:38:58;;;;;;;11.75;2.85;;;17.70;99.90;;;;;;5050721;28;20589;-63
2022/10/07 12:41:42;;;;;;;9.52;2.72;;;17.70;99.90;;;;;;5051890;28;20137;-63
2022/10/07 12:44:09;;;;;;;;;;;17.70;99.90;;;;;;5050846;28;20183;-63
2022/10/07 12:46:49;;;;;;;12.88;2.55;;;17.70;99.90;;;;;;5052051;28;19939;-63
2022/10/07 12:49:29;;;;;;;10.45;2.58;;;17.80;99.90;;;;;;5050948;28;20151;-63
2022/10/07 12:51:59;;;;;;;9.57;2.40;;;17.80;99.90;;;;;;5051719;28;20044;-63
2022/10/07 12:54:42;;;;;;;11.50;2.55;;;17.80;99.90;;;;;;5050006;28;20458;-63
2022/10/07 12:57:16;;;;;;;13.27;2.40;;;17.90;99.90;;;;;;5050624;28;20052;-63
2022/10/07 13:00:11;;;;;;;8.35;2.33;;;17.90;99.90;;;;;;5051750;28;20055;-63
2022/10/07 13:03:07;;;;;;;8.35;2.40;;;18.00;99.90;;;;;;5036227;28;20047;-64
2022/10/07 13:06:18;;;;;;;9.63;2.58;;;17.90;99.90;;;;;;5051552;28;20763;-63
2022/10/07 13:08:50;;;;;;;11.00;2.65;;;17.90;99.90;;;;;;5051415;28;20093;-63
2022/10/07 13:11:46;;;;;;;10.13;2.72;;;18.00;99.90;;;;;;5051249;28;20036;-63
2022/10/07 13:14:24;;;;;;;10.82;2.75;;;18.00;99.90;;;;;;5051211;28;20041;-63